Time;durP1;ratioP1;P1;durP2;ratioP2;P2;SDS_P1;SDS_P2;PMS_P1;PMS_P2;Temp;Humidity;BMP_temperature;BMP_pressure;BME280_temperature;BME280_humidity;BME280_pressure;Samples;Min_cycle;Max_cycle;Signal;HPM_P1;HPM_P2
2023/05/13 00:00:04;;;;;;;10.25;3.22;;;;;;;11.87;49.59;98030.56;10277707;28;20118;-52
2023/05/13 00:05:04;;;;;;;7.60;2.83;;;;;;;11.79;48.48;98041.00;10278231;28;20121;-52
2023/05/13 00:10:03;;;;;;;5.32;2.42;;;;;;;11.75;49.10;98049.66;10273939;28;20132;-52
2023/05/13 00:15:02;;;;;;;13.90;3.13;;;;;;;11.80;49.50;98060.06;10281859;28;20484;-52
2023/05/13 00:20:02;;;;;;;4.97;3.10;;;;;;;11.59;49.52;98021.94;10283767;28;20149;-52
2023/05/13 00:25:01;;;;;;;5.65;3.80;;;;;;;11.85;53.16;98053.09;10284386;28;20061;-52
2023/05/13 00:30:00;;;;;;;4.78;2.63;;;;;;;11.69;50.52;98057.47;10284423;28;20033;-52
2023/05/13 00:34:59;;;;;;;5.70;2.85;;;;;;;11.75;49.87;98059.19;10284193;28;20030;-53
2023/05/13 00:39:58;;;;;;;4.53;2.40;;;;;;;11.70;49.76;98082.59;10284173;28;20029;-52
2023/05/13 00:44:57;;;;;;;4.07;2.70;;;;;;;11.75;49.99;98078.25;10283696;28;20040;-52
2023/05/13 00:49:56;;;;;;;5.07;2.90;;;;;;;11.44;50.84;98052.28;10284023;28;20137;-53
2023/05/13 00:54:55;;;;;;;;;;;;;;;11.55;52.06;98085.19;10283898;28;20116;-52
2023/05/13 00:59:54;;;;;;;4.30;2.85;;;;;;;11.49;53.22;98085.19;10282817;28;20000;-52
2023/05/13 01:05:06;;;;;;;6.93;3.08;;;;;;;11.46;54.17;98071.34;10283161;28;20137;-52
2023/05/13 01:10:19;;;;;;;4.47;2.40;;;;;;;11.41;55.28;98067.88;10282852;28;20152;-52
2023/05/13 01:15:24;;;;;;;5.53;2.95;;;;;;;11.24;56.62;98072.16;10283516;28;20136;-52
2023/05/13 01:20:26;;;;;;;6.15;3.35;;;;;;;11.17;56.41;98076.47;10282503;28;20080;-52
2023/05/13 01:25:25;;;;;;;5.68;3.08;;;;;;;11.07;56.70;98043.59;10282795;28;20133;-52
2023/05/13 01:30:25;;;;;;;6.70;3.33;;;;;;;10.53;58.76;97965.56;10281601;28;20068;-52
2023/05/13 01:35:27;;;;;;;6.35;3.05;;;;;;;11.20;57.29;98070.47;10282121;28;20585;-52
2023/05/13 01:40:26;;;;;;;4.50;2.80;;;;;;;11.28;55.71;98073.06;10282092;28;20449;-53
2023/05/13 01:45:28;;;;;;;3.85;2.65;;;;;;;11.21;55.55;98085.16;10281285;28;20070;-53
2023/05/13 01:50:27;;;;;;;4.72;2.65;;;;;;;11.29;54.69;98090.38;10281620;28;20096;-53
2023/05/13 01:55:26;;;;;;;5.65;2.80;;;;;;;11.22;54.08;98087.78;10281247;28;20037;-52
2023/05/13 02:00:25;;;;;;;5.25;3.05;;;;;;;11.18;54.43;98095.56;10280516;28;20038;-53
2023/05/13 02:05:24;;;;;;;;;;;;;;;11.19;54.61;98094.69;10281128;28;20117;-53
2023/05/13 02:10:23;;;;;;;4.20;2.80;;;;;;;11.28;54.18;98081.72;10281523;28;19917;-54
2023/05/13 02:15:22;;;;;;;4.25;3.00;;;;;;;11.25;54.39;98076.53;10280012;28;20368;-52
2023/05/13 02:20:21;;;;;;;6.05;3.08;;;;;;;11.16;54.05;98072.16;10280520;28;20216;-52
2023/05/13 02:25:20;;;;;;;;;;;;;;;11.29;53.68;98070.47;10281190;28;20582;-52
2023/05/13 02:30:19;;;;;;;6.07;3.00;;;;;;;11.18;54.09;98077.38;10279720;28;19913;-52
2023/05/13 02:35:18;;;;;;;;;;;;;;;11.11;52.84;98078.22;10280011;28;20122;-52
2023/05/13 02:40:17;;;;;;;3.53;2.75;;;;;;;10.77;52.65;98033.97;10279363;28;19913;-52
2023/05/13 02:45:16;;;;;;;3.17;2.60;;;;;;;11.10;52.31;98086.88;10279216;28;20121;-52
2023/05/13 02:50:15;;;;;;;4.57;2.42;;;;;;;10.77;52.86;98032.22;10278967;28;20121;-52
2023/05/13 02:55:13;;;;;;;3.70;2.50;;;;;;;11.07;52.73;98074.75;10279032;28;20112;-52
2023/05/13 03:00:13;;;;;;;5.32;2.80;;;;;;;10.24;52.16;97952.50;10278588;28;20112;-52
2023/05/13 03:05:12;;;;;;;6.75;3.17;;;;;;;11.00;52.92;98066.06;10279082;28;20113;-52
2023/05/13 03:10:11;;;;;;;6.10;3.20;;;;;;;11.06;52.24;98098.09;10278346;28;20034;-52
2023/05/13 03:15:10;;;;;;;3.35;2.85;;;;;;;11.04;52.66;98117.16;10278432;28;20048;-52
2023/05/13 03:20:10;;;;;;;8.65;5.93;;;;;;;11.21;62.06;98118.94;10278902;28;20490;-52
2023/05/13 03:25:09;;;;;;;6.50;4.35;;;;;;;11.00;62.50;98127.53;10278677;28;20062;-52
2023/05/13 03:30:08;;;;;;;8.88;3.22;;;;;;;10.89;57.14;98117.09;10278201;28;20073;-52
2023/05/13 03:35:07;;;;;;;5.22;3.00;;;;;;;10.91;54.90;98123.16;10278401;28;20425;-52
2023/05/13 03:40:07;;;;;;;3.28;2.70;;;;;;;11.00;53.96;98128.38;10278187;28;20068;-52
2023/05/13 03:45:07;;;;;;;4.85;2.92;;;;;;;10.95;54.34;98111.06;10278633;28;20120;-52
2023/05/13 03:50:06;;;;;;;7.30;4.53;;;;;;;11.12;55.69;98131.91;10282870;28;20141;-52
2023/05/13 03:55:06;;;;;;;10.52;7.32;;;;;;;11.17;63.47;98135.38;10285845;28;20488;-53
2023/05/13 04:00:05;;;;;;;;;;;;;;;11.14;68.34;98138.81;10285537;28;20061;-53
2023/05/13 04:05:05;;;;;;;21.90;13.77;;;;;;;11.30;70.61;98146.66;10285916;28;20456;-52
2023/05/13 04:10:04;;;;;;;16.73;10.93;;;;;;;11.15;73.36;98155.28;10285078;28;20124;-52
2023/05/13 04:15:03;;;;;;;14.00;9.45;;;;;;;11.23;72.59;98158.78;10284800;28;20117;-52
2023/05/13 04:20:03;;;;;;;17.17;11.57;;;;;;;11.25;72.75;98164.84;10283950;28;20478;-52
2023/05/13 04:25:02;;;;;;;15.65;9.80;;;;;;;11.43;73.62;98175.28;10284371;28;20550;-52
2023/05/13 04:30:01;;;;;;;12.80;9.52;;;;;;;11.42;73.08;98176.13;10282995;28;20061;-52
2023/05/13 04:35:00;;;;;;;14.45;10.82;;;;;;;11.45;73.60;98189.16;10283493;28;20121;-52
2023/05/13 04:39:59;;;;;;;;;;;;;;;11.60;73.05;98198.72;10284135;28;20116;-52
2023/05/13 04:44:58;;;;;;;17.38;8.95;;;;;;;11.74;72.96;98201.34;10284578;28;19924;-52
2023/05/13 04:49:57;;;;;;;10.88;7.85;;;;;;;11.79;72.67;98217.81;10282790;28;20061;-52
2023/05/13 04:54:56;;;;;;;11.18;7.15;;;;;;;11.90;69.92;98212.63;10283635;28;20572;-52
2023/05/13 04:59:55;;;;;;;11.48;6.80;;;;;;;11.93;70.06;98196.16;10282930;28;20600;-52
2023/05/13 05:04:57;;;;;;;16.05;9.75;;;;;;;12.01;71.04;98195.28;10283508;28;20073;-52
2023/05/13 05:09:56;;;;;;;52.53;43.95;;;;;;;12.14;71.39;98190.97;10283339;28;20136;-52
2023/05/13 05:14:54;;;;;;;;;;;;;;;12.35;71.77;98195.31;10283004;28;20037;-53
2023/05/13 05:19:54;;;;;;;11.80;7.90;;;;;;;12.61;70.94;98205.69;10282185;28;19975;-52
2023/05/13 05:24:53;;;;;;;11.70;8.38;;;;;;;12.88;69.82;98209.06;10283422;28;20809;-52
2023/05/13 05:29:51;;;;;;;;;;;;;;;13.25;66.51;98207.19;10282583;28;20411;-53
2023/05/13 05:34:50;;;;;;;11.93;8.00;;;;;;;13.51;64.79;98207.06;10282051;28;20513;-52
2023/05/13 05:39:49;;;;;;;;;;;;;;;13.82;61.61;98213.88;10281953;28;20486;-53
2023/05/13 05:44:48;;;;;;;10.77;6.63;;;;;;;13.76;58.53;98201.75;10281317;28;19913;-54
2023/05/13 05:49:47;;;;;;;;;;;;;;;13.69;60.13;98202.66;10280549;28;20121;-53
2023/05/13 05:54:46;;;;;;;20.30;12.35;;;;;;;13.37;59.80;98169.78;10280761;28;19921;-53
2023/05/13 05:59:45;;;;;;;13.68;9.20;;;;;;;13.57;59.30;98224.47;10280092;28;20438;-53
2023/05/13 06:04:43;;;;;;;;;;;;;;;13.44;58.92;98231.44;10280615;28;20121;-52
2023/05/13 06:09:42;;;;;;;10.70;6.07;;;;;;;13.64;57.94;98230.53;10279865;28;19917;-52
2023/05/13 06:14:41;;;;;;;9.68;5.72;;;;;;;13.91;56.79;98229.47;10279544;28;20105;-52
2023/05/13 06:19:43;;;;;;;8.25;5.90;;;;;;;13.98;56.24;98200.75;10280035;28;20107;-52
2023/05/13 06:24:43;;;;;;;9.52;6.55;;;;;;;14.27;57.59;98189.19;10279939;28;20077;-53
2023/05/13 06:29:42;;;;;;;10.70;6.95;;;;;;;14.99;54.99;98209.38;10280363;28;20627;-54
2023/05/13 06:34:44;;;;;;;;;;;;;;;15.49;54.85;98208.78;10279167;28;20672;-53
2023/05/13 06:39:43;;;;;;;13.07;6.43;;;;;;;15.58;53.11;98204.28;10279373;28;20391;-52
2023/05/13 06:44:42;;;;;;;;;;;;;;;15.71;52.83;98211.94;10279851;28;20483;-53
2023/05/13 06:49:41;;;;;;;9.37;4.53;;;;;;;15.80;49.71;98219.69;10279186;28;19986;-53
2023/05/13 06:54:40;;;;;;;6.78;4.35;;;;;;;15.72;49.12;98198.84;10272758;28;20113;-53
2023/05/13 06:59:39;;;;;;;7.80;4.35;;;;;;;16.02;47.89;98218.50;10275923;28;20041;-53
2023/05/13 07:04:38;;;;;;;;;;;;;;;16.03;48.06;98209.75;10278534;28;20034;-53
2023/05/13 07:09:36;;;;;;;12.10;5.27;;;;;;;16.33;49.29;98225.00;10277255;28;19949;-52
2023/05/13 07:14:36;;;;;;;6.57;3.88;;;;;;;16.25;46.92;98191.06;10274171;28;20121;-53
2023/05/13 07:19:35;;;;;;;6.78;4.68;;;;;;;16.38;47.81;98221.41;10276651;28;20532;-53
2023/05/13 07:24:34;;;;;;;8.10;4.63;;;;;;;16.08;47.63;98194.81;10283481;28;20473;-53
2023/05/13 07:29:33;;;;;;;8.27;4.68;;;;;;;16.22;49.01;98238.25;10283909;28;20470;-52
2023/05/13 07:34:32;;;;;;;6.70;4.70;;;;;;;16.18;49.49;98239.19;10282703;28;20045;-53
2023/05/13 07:39:30;;;;;;;;;;;;;;;15.77;48.22;98238.03;10283178;28;20037;-52
2023/05/13 07:44:29;;;;;;;6.70;3.83;;;;;;;15.81;49.19;98240.63;10285772;28;20242;-53
2023/05/13 07:49:28;;;;;;;4.47;3.65;;;;;;;15.91;49.45;98236.13;10285644;28;20108;-53
2023/05/13 07:54:27;;;;;;;5.57;3.53;;;;;;;15.85;48.99;98212.63;10285473;28;20163;-52
2023/05/13 07:59:26;;;;;;;5.03;3.47;;;;;;;15.88;47.87;98217.84;10285353;28;20105;-52
2023/05/13 08:04:25;;;;;;;5.20;3.42;;;;;;;15.70;47.76;98218.09;10285362;28;20050;-53
2023/05/13 08:09:24;;;;;;;7.28;4.05;;;;;;;15.65;49.57;98215.53;10285518;28;20084;-53
2023/05/13 08:14:23;;;;;;;5.30;3.38;;;;;;;15.63;49.92;98207.69;10284054;28;20038;-54
2023/05/13 08:19:22;;;;;;;;;;;;;;;15.92;48.43;98210.81;10285199;28;20105;-52
2023/05/13 08:24:21;;;;;;;7.60;4.33;;;;;;;16.15;47.07;98224.41;10284443;28;19913;-53
2023/05/13 08:29:20;;;;;;;6.38;3.53;;;;;;;16.22;46.37;98206.84;10284684;28;20129;-53
2023/05/13 08:34:19;;;;;;;5.65;3.10;;;;;;;16.34;46.34;98200.53;10283327;28;20113;-52
2023/05/13 08:39:18;;;;;;;6.28;3.67;;;;;;;16.51;46.28;98204.59;10284674;28;20132;-53
2023/05/13 08:44:17;;;;;;;6.65;5.05;;;;;;;16.70;46.39;98204.28;10283732;28;20036;-53
2023/05/13 08:49:16;;;;;;;6.43;3.60;;;;;;;16.56;45.22;98198.38;10284293;28;20073;-53
2023/05/13 08:54:16;;;;;;;6.60;4.45;;;;;;;16.42;46.06;98165.47;10282605;28;20428;-52
2023/05/13 08:59:16;;;;;;;7.60;3.88;;;;;;;16.73;44.54;98143.94;10283658;28;20058;-52
2023/05/13 09:04:17;;;;;;;5.15;3.10;;;;;;;16.88;44.14;98172.47;10281857;28;20546;-53
2023/05/13 09:09:17;;;;;;;4.60;2.60;;;;;;;16.93;43.22;98177.63;10283205;28;20468;-53
2023/05/13 09:14:18;;;;;;;4.57;3.55;;;;;;;17.02;43.78;98158.22;10282239;28;20080;-52
2023/05/13 09:19:17;;;;;;;6.43;3.30;;;;;;;17.20;43.03;98167.50;10282339;28;20125;-53
2023/05/13 09:24:22;;;;;;;5.07;3.25;;;;;;;17.42;43.26;98162.63;10282275;28;20109;-53
2023/05/13 09:29:28;;;;;;;4.57;3.20;;;;;;;17.35;43.16;98120.81;10281758;28;20072;-53
2023/05/13 09:34:31;;;;;;;5.47;3.35;;;;;;;17.90;42.91;98162.44;10282299;28;20152;-55
2023/05/13 09:39:32;;;;;;;7.93;3.40;;;;;;;18.12;42.19;98155.75;10280999;28;20114;-53
2023/05/13 09:44:32;;;;;;;5.28;3.30;;;;;;;18.25;42.37;98158.94;10280302;28;20101;-53
2023/05/13 09:49:32;;;;;;;6.78;3.17;;;;;;;18.28;42.27;98160.63;10280865;28;20073;-54
2023/05/13 09:54:34;;;;;;;12.43;4.10;;;;;;;17.93;41.80;98109.84;10279930;28;20073;-53
2023/05/13 09:59:34;;;;;;;5.15;3.30;;;;;;;18.15;41.95;98149.56;10280700;28;20091;-53
2023/05/13 10:04:33;;;;;;;6.95;4.00;;;;;;;18.46;42.85;98159.31;10280122;28;20164;-53
2023/05/13 10:09:35;;;;;;;4.45;3.25;;;;;;;18.55;41.63;98127.50;10280878;28;20068;-53
2023/05/13 10:14:36;;;;;;;6.40;3.50;;;;;;;18.95;42.51;98143.06;10281418;28;20124;-53
2023/05/13 10:19:36;;;;;;;5.97;3.47;;;;;;;18.84;40.27;98145.13;10280091;28;20577;-54
2023/05/13 10:24:37;;;;;;;4.72;3.22;;;;;;;18.92;40.72;98137.88;10280065;28;20109;-54
2023/05/13 10:29:37;;;;;;;5.90;3.60;;;;;;;19.16;40.19;98127.59;10279939;28;20072;-55
2023/05/13 10:34:38;;;;;;;8.40;3.45;;;;;;;19.30;40.66;98121.88;10279889;28;20097;-53
2023/05/13 10:39:56;;;;;;;4.45;3.00;;;;;;;19.49;39.06;98116.94;10279705;28;20076;-54
2023/05/13 10:44:57;;;;;;;5.45;3.05;;;;;;;19.71;38.85;98123.25;10279050;28;20125;-54
2023/05/13 10:49:57;;;;;;;5.22;3.45;;;;;;;19.60;40.19;98133.28;10278791;28;20584;-54
2023/05/13 10:55:02;;;;;;;7.68;3.50;;;;;;;19.91;38.72;98141.06;10278451;28;20129;-54
2023/05/13 11:00:12;;;;;;;5.72;3.28;;;;;;;19.99;38.88;98146.94;10278759;28;20125;-54
2023/05/13 11:05:20;;;;;;;7.50;3.83;;;;;;;20.40;39.70;98138.56;10278766;28;20096;-54
2023/05/13 11:10:28;;;;;;;5.60;3.00;;;;;;;19.86;39.17;98148.22;10278807;28;20140;-54
2023/05/13 11:15:47;;;;;;;4.72;2.78;;;;;;;20.06;38.74;98139.69;10279064;28;20137;-54
2023/05/13 11:20:52;;;;;;;6.05;3.03;;;;;;;19.95;41.82;98160.25;10279067;28;20070;-53
2023/05/13 11:26:23;;;;;;;6.50;3.22;;;;;;;20.12;41.42;98160.59;10278333;28;20115;-54
2023/05/13 11:31:23;;;;;;;5.85;3.50;;;;;;;20.24;41.07;98154.91;10276896;28;20129;-54
2023/05/13 11:36:29;;;;;;;6.70;3.95;;;;;;;20.21;42.20;98156.75;10278014;28;20572;-54
2023/05/13 11:41:31;;;;;;;7.13;4.15;;;;;;;20.62;42.35;98162.44;10278414;28;20125;-54
2023/05/13 11:46:30;;;;;;;4.70;3.55;;;;;;;20.07;42.29;98094.88;10277888;28;20064;-54
2023/05/13 11:51:30;;;;;;;7.03;3.47;;;;;;;20.57;40.73;98161.75;10277970;28;20515;-54
2023/05/13 11:56:30;;;;;;;5.70;3.92;;;;;;;20.80;40.98;98167.06;10277914;28;20117;-54
2023/05/13 12:01:28;;;;;;;9.55;5.63;;;;;;;20.79;41.48;98173.22;10277347;28;20116;-54
2023/05/13 12:06:28;;;;;;;5.75;3.83;;;;;;;20.47;41.45;98155.94;10277461;28;20026;-54
2023/05/13 12:11:27;;;;;;;11.55;6.38;;;;;;;20.46;41.84;98159.47;10282284;28;20057;-54
2023/05/13 12:16:26;;;;;;;5.45;3.92;;;;;;;20.41;41.89;98156.97;10284334;28;20551;-53
2023/05/13 12:21:30;;;;;;;6.40;3.80;;;;;;;20.69;41.18;98154.25;10284567;28;20634;-54
2023/05/13 12:26:30;;;;;;;5.90;3.75;;;;;;;21.67;40.70;98148.88;10284511;28;20105;-55
2023/05/13 12:31:29;;;;;;;6.95;3.78;;;;;;;21.61;39.30;98143.84;10284158;28;20069;-54
2023/05/13 12:36:34;;;;;;;7.20;3.72;;;;;;;21.66;40.81;98137.44;10284546;28;20129;-55
2023/05/13 12:41:38;;;;;;;6.88;3.83;;;;;;;22.15;42.15;98146.03;10282512;28;20072;-54
2023/05/13 12:46:38;;;;;;;7.20;3.95;;;;;;;22.25;43.36;98148.31;10284010;28;20076;-54
2023/05/13 12:51:37;;;;;;;5.60;3.92;;;;;;;22.15;42.41;98124.03;10283396;28;20349;-54
2023/05/13 12:56:39;;;;;;;6.03;4.30;;;;;;;22.21;43.21;98115.88;10283059;28;20034;-54
2023/05/13 13:01:38;;;;;;;8.82;3.75;;;;;;;22.67;41.44;98118.28;10283472;28;20113;-54
2023/05/13 13:06:36;;;;;;;90.35;69.05;;;;;;;22.83;39.41;98103.47;10282500;28;20407;-54
2023/05/13 13:11:35;;;;;;;104.25;93.88;;;;;;;23.00;38.69;98126.56;10282690;28;20043;-54
2023/05/13 13:16:34;;;;;;;10.15;6.97;;;;;;;21.96;40.00;98129.19;10281756;28;20665;-54
2023/05/13 13:21:33;;;;;;;17.50;12.05;;;;;;;21.64;40.85;98104.97;10281773;28;20030;-54
2023/05/13 13:26:32;;;;;;;12.80;6.07;;;;;;;21.20;40.81;98125.16;10282040;28;20559;-54
2023/05/13 13:31:32;;;;;;;6.85;4.72;;;;;;;20.75;42.26;98133.84;10281594;28;20025;-54
2023/05/13 13:36:31;;;;;;;7.70;5.93;;;;;;;20.26;43.36;98086.34;10281699;28;20472;-53
2023/05/13 13:41:30;;;;;;;10.43;6.68;;;;;;;20.78;43.63;98123.19;10278167;28;20121;-54
2023/05/13 13:46:29;;;;;;;11.10;5.68;;;;;;;20.49;42.48;98125.97;10280694;28;20100;-54
2023/05/13 13:51:28;;;;;;;15.88;9.73;;;;;;;20.28;43.55;98103.81;10280657;28;20053;-54
2023/05/13 13:56:27;;;;;;;7.45;4.82;;;;;;;20.37;43.83;98128.97;10280284;28;20030;-54
2023/05/13 14:01:26;;;;;;;5.68;4.22;;;;;;;20.66;43.05;98125.34;10277360;28;20022;-54
2023/05/13 14:06:25;;;;;;;11.18;6.18;;;;;;;20.76;43.82;98119.75;10278874;28;20037;-54
2023/05/13 14:11:24;;;;;;;7.55;4.82;;;;;;;20.97;42.24;98126.88;10278827;28;20037;-54
2023/05/13 14:16:23;;;;;;;8.57;4.10;;;;;;;20.58;42.85;98137.94;10279391;28;20117;-54
2023/05/13 14:21:22;;;;;;;17.60;9.02;;;;;;;20.24;43.60;98128.53;10278070;28;20080;-54
2023/05/13 14:26:21;;;;;;;28.92;13.40;;;;;;;19.75;44.99;98134.56;10280317;28;20391;-54
2023/05/13 14:31:20;;;;;;;14.82;7.57;;;;;;;19.48;46.03;98137.09;10277634;28;20125;-53
2023/05/13 14:36:21;;;;;;;10.85;6.03;;;;;;;19.42;46.90;98132.91;10275297;28;20053;-53
2023/05/13 14:41:21;;;;;;;8.35;5.28;;;;;;;19.51;46.48;98131.78;10276964;28;20120;-53
2023/05/13 14:46:20;;;;;;;9.40;6.07;;;;;;;19.28;47.23;98134.25;10273962;28;20487;-54
2023/05/13 14:51:19;;;;;;;8.05;5.10;;;;;;;18.99;47.31;98131.56;10282164;28;20129;-53
2023/05/13 14:56:20;;;;;;;11.10;6.00;;;;;;;19.17;47.50;98135.41;10281654;28;20056;-53
2023/05/13 15:01:18;;;;;;;8.32;5.70;;;;;;;19.01;47.98;98127.09;10281747;28;20119;-54
2023/05/13 15:06:18;;;;;;;9.82;6.35;;;;;;;19.31;46.89;98124.47;10280831;28;20026;-54
2023/05/13 15:11:17;;;;;;;8.77;5.32;;;;;;;18.97;47.24;98104.44;10281632;28;20120;-54
2023/05/13 15:16:16;;;;;;;7.97;4.82;;;;;;;18.97;47.42;98114.97;10282279;28;20068;-54
2023/05/13 15:21:16;;;;;;;11.52;9.93;;;;;;;18.99;48.23;98128.94;10281979;28;20068;-54
2023/05/13 15:26:15;;;;;;;6.47;4.82;;;;;;;19.14;47.64;98143.41;10282290;28;20116;-54
2023/05/13 15:31:14;;;;;;;10.32;5.10;;;;;;;19.17;47.25;98143.31;10272321;28;20034;-54
2023/05/13 15:36:13;;;;;;;11.77;5.60;;;;;;;18.88;47.90;98130.13;10276147;28;20173;-54
2023/05/13 15:41:12;;;;;;;7.95;5.28;;;;;;;19.03;47.48;98142.84;10277903;28;20126;-54
2023/05/13 15:46:11;;;;;;;9.18;4.50;;;;;;;18.85;47.44;98131.06;10283993;28;20040;-54
2023/05/13 15:51:10;;;;;;;8.52;5.07;;;;;;;18.67;48.19;98128.94;10284287;28;20563;-53
2023/05/13 15:56:09;;;;;;;8.60;4.93;;;;;;;18.56;48.54;98151.13;10285673;28;20500;-54
2023/05/13 16:01:08;;;;;;;7.72;5.60;;;;;;;18.73;48.75;98157.72;10284398;28;20029;-53
2023/05/13 16:06:07;;;;;;;9.77;6.82;;;;;;;18.73;48.07;98157.72;10285855;28;20029;-53
2023/05/13 16:11:06;;;;;;;8.57;5.38;;;;;;;18.68;48.28;98159.59;10284266;28;20018;-54
2023/05/13 16:16:06;;;;;;;7.10;4.97;;;;;;;18.52;49.13;98157.34;10284725;28;20053;-53
2023/05/13 16:21:04;;;;;;;6.53;4.60;;;;;;;18.42;49.56;98147.13;10284453;28;20108;-54
2023/05/13 16:26:04;;;;;;;8.65;4.80;;;;;;;18.28;49.90;98150.97;10284365;28;20068;-53
2023/05/13 16:31:03;;;;;;;8.80;4.93;;;;;;;18.39;49.78;98153.34;10284043;28;20564;-53
2023/05/13 16:36:03;;;;;;;8.45;6.18;;;;;;;17.98;49.64;98108.81;10284054;28;20547;-53
2023/05/13 16:41:02;;;;;;;9.50;6.00;;;;;;;18.30;49.85;98161.47;10283036;28;20149;-53
2023/05/13 16:46:01;;;;;;;8.23;5.15;;;;;;;18.21;50.85;98166.94;10284976;28;20066;-53
2023/05/13 16:51:00;;;;;;;8.95;5.57;;;;;;;18.22;50.71;98166.03;10282903;28;20049;-53
2023/05/13 16:55:59;;;;;;;6.70;5.03;;;;;;;18.16;50.71;98164.44;10280340;28;20500;-53
2023/05/13 17:00:58;;;;;;;6.90;5.10;;;;;;;18.17;50.66;98159.16;10280891;28;20124;-53
2023/05/13 17:05:57;;;;;;;8.18;4.72;;;;;;;17.89;50.35;98137.94;10276860;28;20549;-53
2023/05/13 17:10:56;;;;;;;7.50;5.13;;;;;;;18.04;50.34;98144.59;10282377;28;20505;-54
2023/05/13 17:15:55;;;;;;;10.30;5.85;;;;;;;18.15;51.71;98160.94;10283068;28;20046;-53
2023/05/13 17:20:54;;;;;;;11.20;6.65;;;;;;;18.14;52.48;98164.47;10282883;28;20180;-54
2023/05/13 17:25:53;;;;;;;10.98;6.40;;;;;;;17.96;52.89;98165.78;10282204;28;20108;-54
2023/05/13 17:30:52;;;;;;;8.60;5.90;;;;;;;17.86;52.77;98171.28;10281353;28;20040;-53
2023/05/13 17:35:51;;;;;;;8.65;5.70;;;;;;;17.76;52.73;98171.50;10281940;28;20113;-53
2023/05/13 17:40:50;;;;;;;9.80;6.20;;;;;;;17.70;53.21;98168.13;10280965;28;20485;-53
2023/05/13 17:45:49;;;;;;;11.75;6.60;;;;;;;17.68;54.02;98176.06;10282250;28;20121;-53
2023/05/13 17:50:48;;;;;;;10.63;7.07;;;;;;;17.67;54.37;98176.94;10280923;28;20060;-54
2023/05/13 17:55:48;;;;;;;12.20;8.02;;;;;;;17.58;54.45;98178.91;10281597;28;20129;-53
2023/05/13 18:00:47;;;;;;;16.20;10.05;;;;;;;17.50;54.71;98169.44;10280770;28;20129;-53
2023/05/13 18:05:47;;;;;;;15.55;9.88;;;;;;;17.00;54.70;98079.59;10279216;28;20125;-53
2023/05/13 18:10:49;;;;;;;18.90;12.98;;;;;;;17.19;55.21;98115.91;10278759;28;20124;-53
2023/05/13 18:15:48;;;;;;;19.98;11.18;;;;;;;17.50;55.80;98171.22;10280111;28;20132;-53
2023/05/13 18:20:47;;;;;;;15.85;10.13;;;;;;;17.38;56.10;98169.72;10280076;28;20124;-55
2023/05/13 18:25:47;;;;;;;13.75;9.18;;;;;;;17.38;56.53;98181.94;10279865;28;20024;-54
2023/05/13 18:30:46;;;;;;;12.18;8.02;;;;;;;17.28;57.00;98183.91;10279444;28;20582;-53
2023/05/13 18:35:45;;;;;;;12.55;8.13;;;;;;;17.19;57.47;98176.22;10279702;28;20476;-53
2023/05/13 18:40:44;;;;;;;11.23;7.72;;;;;;;17.13;58.00;98185.09;10277521;28;20439;-53
2023/05/13 18:45:43;;;;;;;13.18;8.02;;;;;;;17.02;58.35;98166.97;10279115;28;20042;-53
2023/05/13 18:50:42;;;;;;;13.85;8.35;;;;;;;17.01;58.57;98167.88;10278421;28;20060;-53
2023/05/13 18:55:41;;;;;;;10.63;7.82;;;;;;;16.92;58.53;98157.56;10278767;28;20053;-53
2023/05/13 19:00:41;;;;;;;10.68;7.20;;;;;;;16.84;59.31;98162.97;10278176;28;20534;-53
2023/05/13 19:05:40;;;;;;;11.13;8.10;;;;;;;16.79;59.01;98177.84;10278528;28;20069;-53
2023/05/13 19:10:39;;;;;;;11.35;8.18;;;;;;;16.72;59.14;98181.50;10277843;28;20124;-53
2023/05/13 19:15:39;;;;;;;14.45;8.68;;;;;;;16.63;59.89;98165.94;10278534;28;20117;-53
2023/05/13 19:20:38;;;;;;;14.18;8.50;;;;;;;16.54;60.33;98171.38;10284500;28;20125;-53
2023/05/13 19:25:41;;;;;;;15.30;11.13;;;;;;;16.41;61.98;98163.72;10286824;28;20108;-54
2023/05/13 19:30:40;;;;;;;18.27;12.40;;;;;;;16.28;62.41;98170.94;10286619;28;20473;-53
2023/05/13 19:35:39;;;;;;;14.38;11.00;;;;;;;16.20;62.93;98188.53;10287306;28;20144;-53
2023/05/13 19:40:38;;;;;;;13.63;9.07;;;;;;;16.11;62.83;98188.66;10285442;28;20069;-53
2023/05/13 19:45:37;;;;;;;9.90;6.93;;;;;;;15.98;63.63;98198.50;10285946;28;20041;-53
2023/05/13 19:50:35;;;;;;;;;;;;;;;15.91;64.15;98196.84;10285459;28;20056;-53
2023/05/13 19:55:34;;;;;;;9.23;7.27;;;;;;;15.84;64.75;98190.00;10284658;28;19925;-53
2023/05/13 20:00:33;;;;;;;;;;;;;;;15.78;65.21;98196.13;10286663;28;20130;-53
2023/05/13 20:05:32;;;;;;;9.10;7.57;;;;;;;15.72;65.13;98205.84;10285088;28;20003;-53
2023/05/13 20:10:31;;;;;;;;;;;;;;;15.62;65.55;98200.75;10284326;28;20101;-53
2023/05/13 20:15:31;;;;;;;18.20;9.47;;;;;;;15.56;65.33;98206.06;10284212;28;19949;-53
2023/05/13 20:20:29;;;;;;;13.90;8.50;;;;;;;15.53;65.20;98200.88;10284685;28;20475;-53
2023/05/13 20:25:28;;;;;;;;;;;;;;;15.50;65.24;98194.81;10284360;28;20415;-53
2023/05/13 20:30:27;;;;;;;12.80;8.67;;;;;;;15.44;65.07;98174.84;10282908;28;20034;-53
2023/05/13 20:35:26;;;;;;;13.00;8.77;;;;;;;15.34;66.18;98168.88;10285508;28;20129;-53
2023/05/13 20:40:25;;;;;;;;;;;;;;;15.30;67.10;98166.31;10283910;28;20109;-53
2023/05/13 20:45:24;;;;;;;11.57;8.60;;;;;;;15.23;67.16;98171.63;10283609;28;19917;-53
2023/05/13 20:50:26;;;;;;;15.32;8.70;;;;;;;15.15;66.97;98168.22;10284109;28;20148;-53
2023/05/13 20:55:25;;;;;;;11.52;8.25;;;;;;;15.11;66.91;98165.66;10284464;28;20560;-53
2023/05/13 21:00:24;;;;;;;15.95;8.30;;;;;;;15.02;66.60;98167.53;10284388;28;20073;-53
2023/05/13 21:05:23;;;;;;;;;;;;;;;14.91;66.12;98158.94;10283210;28;20037;-52
2023/05/13 21:10:22;;;;;;;13.13;8.48;;;;;;;14.89;66.33;98170.28;10282745;28;20349;-52
2023/05/13 21:15:21;;;;;;;12.52;8.40;;;;;;;14.76;66.63;98156.53;10282453;28;20116;-53
2023/05/13 21:20:19;;;;;;;;;;;;;;;14.76;67.37;98170.44;10282464;28;20041;-52
2023/05/13 21:25:18;;;;;;;12.20;9.35;;;;;;;14.72;68.20;98166.13;10282350;28;19917;-53
2023/05/13 21:30:17;;;;;;;;;;;;;;;14.68;68.32;98167.00;10282434;28;20486;-53
2023/05/13 21:35:17;;;;;;;18.07;12.63;;;;;;;14.23;72.03;98143.09;10282461;28;20303;-53
2023/05/13 21:40:16;;;;;;;16.77;11.65;;;;;;;14.14;74.34;98177.97;10282200;28;20069;-52
2023/05/13 21:45:15;;;;;;;;;;;;;;;14.12;74.45;98171.03;10281641;28;20148;-53
2023/05/13 21:50:14;;;;;;;17.80;13.10;;;;;;;14.19;74.29;98173.59;10281224;28;19937;-52
2023/05/13 21:55:13;;;;;;;19.75;13.23;;;;;;;14.14;73.76;98154.47;10280773;28;20133;-52
2023/05/13 22:00:13;;;;;;;;;;;;;;;14.15;75.05;98165.81;10280726;28;20037;-53
2023/05/13 22:05:12;;;;;;;22.30;15.50;;;;;;;14.00;75.52;98161.56;10280956;28;20023;-53
2023/05/13 22:10:11;;;;;;;;;;;;;;;13.91;75.97;98159.91;10278244;28;20029;-53
2023/05/13 22:15:10;;;;;;;20.77;15.20;;;;;;;13.98;75.67;98152.88;10280589;28;20002;-53
2023/05/13 22:20:10;;;;;;;18.48;14.43;;;;;;;14.01;75.06;98142.44;10274875;28;20113;-52
2023/05/13 22:25:09;;;;;;;19.58;14.52;;;;;;;14.02;75.31;98132.84;10273239;28;20144;-53
2023/05/13 22:30:08;;;;;;;;;;;;;;;13.98;75.29;98132.00;10275383;28;20026;-53
2023/05/13 22:35:07;;;;;;;14.05;10.02;;;;;;;13.98;74.65;98129.41;10278808;28;19913;-53
2023/05/13 22:40:08;;;;;;;17.45;10.57;;;;;;;13.92;75.00;98127.72;10279643;28;20109;-53
2023/05/13 22:45:07;;;;;;;13.35;10.32;;;;;;;13.95;74.80;98125.06;10278865;28;20558;-53
2023/05/13 22:50:07;;;;;;;14.10;9.77;;;;;;;13.94;74.50;98117.28;10279499;28;20071;-52
2023/05/13 22:55:06;;;;;;;13.38;9.63;;;;;;;13.64;74.80;98053.19;10278317;28;20072;-52
2023/05/13 23:00:06;;;;;;;15.02;9.95;;;;;;;14.06;74.75;98121.53;10278665;28;20133;-53
2023/05/13 23:05:06;;;;;;;13.23;10.63;;;;;;;13.93;75.24;98134.66;10278741;28;20140;-53
2023/05/13 23:10:05;;;;;;;14.65;10.68;;;;;;;13.94;74.83;98125.09;10277891;28;20069;-52
2023/05/13 23:15:05;;;;;;;14.48;10.02;;;;;;;14.02;74.62;98114.59;10278707;28;20084;-53